sensor_id;sensor_type;location;lat;lon;timestamp;temperature;humidity
84053;DHT22;74140;44.988;4.976;2023-12-20T00:00:09;4.20;69.70
84053;DHT22;74140;44.988;4.976;2023-12-20T00:02:36;4.20;68.70
84053;DHT22;74140;44.988;4.976;2023-12-20T00:05:34;4.30;68.50
84053;DHT22;74140;44.988;4.976;2023-12-20T00:08:11;4.30;69.00
84053;DHT22;74140;44.988;4.976;2023-12-20T00:10:52;4.40;68.90
84053;DHT22;74140;44.988;4.976;2023-12-20T00:13:31;4.40;68.80
84053;DHT22;74140;44.988;4.976;2023-12-20T00:16:07;4.40;68.50
84053;DHT22;74140;44.988;4.976;2023-12-20T00:18:43;4.50;69.00
84053;DHT22;74140;44.988;4.976;2023-12-20T00:21:19;4.40;69.20
84053;DHT22;74140;44.988;4.976;2023-12-20T00:24:18;4.60;68.90
84053;DHT22;74140;44.988;4.976;2023-12-20T00:26:52;4.60;68.30
84053;DHT22;74140;44.988;4.976;2023-12-20T00:29:24;4.60;69.20
84053;DHT22;74140;44.988;4.976;2023-12-20T00:32:23;4.60;69.00
84053;DHT22;74140;44.988;4.976;2023-12-20T00:34:58;4.50;68.90
84053;DHT22;74140;44.988;4.976;2023-12-20T00:37:27;4.60;68.40
84053;DHT22;74140;44.988;4.976;2023-12-20T00:39:58;4.60;68.90
84053;DHT22;74140;44.988;4.976;2023-12-20T00:42:47;4.60;69.60
84053;DHT22;74140;44.988;4.976;2023-12-20T00:45:26;4.70;68.50
84053;DHT22;74140;44.988;4.976;2023-12-20T00:48:07;4.80;68.20
84053;DHT22;74140;44.988;4.976;2023-12-20T00:50:37;4.80;69.00
84053;DHT22;74140;44.988;4.976;2023-12-20T00:53:03;4.70;69.50
84053;DHT22;74140;44.988;4.976;2023-12-20T00:55:49;4.70;68.80
84053;DHT22;74140;44.988;4.976;2023-12-20T00:58:21;4.90;67.80
84053;DHT22;74140;44.988;4.976;2023-12-20T01:00:49;5.00;67.70
84053;DHT22;74140;44.988;4.976;2023-12-20T01:03:24;5.00;68.50
84053;DHT22;74140;44.988;4.976;2023-12-20T01:05:59;5.00;68.90
84053;DHT22;74140;44.988;4.976;2023-12-20T01:08:43;5.10;68.70
84053;DHT22;74140;44.988;4.976;2023-12-20T01:11:19;5.20;67.60
84053;DHT22;74140;44.988;4.976;2023-12-20T01:13:50;5.30;67.20
84053;DHT22;74140;44.988;4.976;2023-12-20T01:16:19;5.40;67.30
84053;DHT22;74140;44.988;4.976;2023-12-20T01:18:48;5.40;68.30
84053;DHT22;74140;44.988;4.976;2023-12-20T01:21:25;5.40;67.80
84053;DHT22;74140;44.988;4.976;2023-12-20T01:23:53;5.50;67.30
84053;DHT22;74140;44.988;4.976;2023-12-20T01:29:10;5.70;66.50
84053;DHT22;74140;44.988;4.976;2023-12-20T01:31:36;5.70;66.80
84053;DHT22;74140;44.988;4.976;2023-12-20T01:37:09;5.70;66.70
84053;DHT22;74140;44.988;4.976;2023-12-20T01:39:35;5.60;66.40
84053;DHT22;74140;44.988;4.976;2023-12-20T01:42:03;5.60;66.60
84053;DHT22;74140;44.988;4.976;2023-12-20T01:44:34;5.60;66.50
84053;DHT22;74140;44.988;4.976;2023-12-20T01:47:21;5.60;66.80
84053;DHT22;74140;44.988;4.976;2023-12-20T01:49:49;5.60;66.50
84053;DHT22;74140;44.988;4.976;2023-12-20T01:52:21;5.60;66.50
84053;DHT22;74140;44.988;4.976;2023-12-20T01:54:55;5.60;67.00
84053;DHT22;74140;44.988;4.976;2023-12-20T01:57:41;5.60;67.10
84053;DHT22;74140;44.988;4.976;2023-12-20T02:00:37;5.70;66.50
84053;DHT22;74140;44.988;4.976;2023-12-20T02:03:21;5.70;66.30
84053;DHT22;74140;44.988;4.976;2023-12-20T02:06:02;5.60;67.40
84053;DHT22;74140;44.988;4.976;2023-12-20T02:08:38;5.80;66.90
84053;DHT22;74140;44.988;4.976;2023-12-20T02:11:28;5.90;66.80
84053;DHT22;74140;44.988;4.976;2023-12-20T02:14:16;5.90;66.50
84053;DHT22;74140;44.988;4.976;2023-12-20T02:17:15;5.90;66.70
84053;DHT22;74140;44.988;4.976;2023-12-20T02:20:14;6.00;67.10
84053;DHT22;74140;44.988;4.976;2023-12-20T02:22:40;6.10;66.40
84053;DHT22;74140;44.988;4.976;2023-12-20T02:25:11;6.20;65.80
84053;DHT22;74140;44.988;4.976;2023-12-20T02:27:43;6.10;66.50
84053;DHT22;74140;44.988;4.976;2023-12-20T02:30:37;6.20;66.40
84053;DHT22;74140;44.988;4.976;2023-12-20T02:33:33;6.20;66.60
84053;DHT22;74140;44.988;4.976;2023-12-20T02:36:20;6.30;66.30
84053;DHT22;74140;44.988;4.976;2023-12-20T02:39:02;6.20;66.90
84053;DHT22;74140;44.988;4.976;2023-12-20T02:44:09;6.10;68.20
84053;DHT22;74140;44.988;4.976;2023-12-20T02:46:42;6.10;67.80
84053;DHT22;74140;44.988;4.976;2023-12-20T02:49:11;6.10;68.40
84053;DHT22;74140;44.988;4.976;2023-12-20T02:51:46;6.10;68.70
84053;DHT22;74140;44.988;4.976;2023-12-20T02:54:17;6.20;68.40
84053;DHT22;74140;44.988;4.976;2023-12-20T02:56:51;6.10;68.50
84053;DHT22;74140;44.988;4.976;2023-12-20T02:59:26;6.10;68.60
84053;DHT22;74140;44.988;4.976;2023-12-20T03:02:00;6.10;68.50
84053;DHT22;74140;44.988;4.976;2023-12-20T03:04:34;6.10;69.20
84053;DHT22;74140;44.988;4.976;2023-12-20T03:07:25;6.10;68.80
84053;DHT22;74140;44.988;4.976;2023-12-20T03:10:01;6.10;69.10
84053;DHT22;74140;44.988;4.976;2023-12-20T03:12:45;6.20;68.40
84053;DHT22;74140;44.988;4.976;2023-12-20T03:15:24;6.20;68.90
84053;DHT22;74140;44.988;4.976;2023-12-20T03:20:45;6.20;69.00
84053;DHT22;74140;44.988;4.976;2023-12-20T03:23:22;6.20;69.80
84053;DHT22;74140;44.988;4.976;2023-12-20T03:26:05;6.30;69.60
84053;DHT22;74140;44.988;4.976;2023-12-20T03:28:38;6.30;68.20
84053;DHT22;74140;44.988;4.976;2023-12-20T03:31:20;6.40;69.10
84053;DHT22;74140;44.988;4.976;2023-12-20T03:34:24;6.40;69.40
84053;DHT22;74140;44.988;4.976;2023-12-20T03:36:53;6.30;70.40
84053;DHT22;74140;44.988;4.976;2023-12-20T03:45:35;6.40;71.20
84053;DHT22;74140;44.988;4.976;2023-12-20T03:48:04;6.40;70.80
84053;DHT22;74140;44.988;4.976;2023-12-20T03:50:36;6.40;71.00
84053;DHT22;74140;44.988;4.976;2023-12-20T03:53:10;6.40;71.50
84053;DHT22;74140;44.988;4.976;2023-12-20T03:55:53;6.40;71.60
84053;DHT22;74140;44.988;4.976;2023-12-20T03:58:26;6.40;71.10
84053;DHT22;74140;44.988;4.976;2023-12-20T04:00:57;6.40;71.50
84053;DHT22;74140;44.988;4.976;2023-12-20T04:06:10;6.40;70.70
84053;DHT22;74140;44.988;4.976;2023-12-20T04:08:44;6.40;71.30
84053;DHT22;74140;44.988;4.976;2023-12-20T04:11:13;6.40;70.50
84053;DHT22;74140;44.988;4.976;2023-12-20T04:13:41;6.40;70.60
84053;DHT22;74140;44.988;4.976;2023-12-20T04:16:10;6.30;72.20
84053;DHT22;74140;44.988;4.976;2023-12-20T04:18:44;6.40;71.00
84053;DHT22;74140;44.988;4.976;2023-12-20T04:21:45;6.30;71.60
84053;DHT22;74140;44.988;4.976;2023-12-20T04:24:37;6.30;71.80
84053;DHT22;74140;44.988;4.976;2023-12-20T04:27:09;6.20;72.50
84053;DHT22;74140;44.988;4.976;2023-12-20T04:32:19;6.40;71.40
84053;DHT22;74140;44.988;4.976;2023-12-20T04:37:46;6.50;70.80
84053;DHT22;74140;44.988;4.976;2023-12-20T04:43:39;6.50;70.00
84053;DHT22;74140;44.988;4.976;2023-12-20T04:46:14;6.50;70.00
84053;DHT22;74140;44.988;4.976;2023-12-20T04:48:53;6.50;69.90
84053;DHT22;74140;44.988;4.976;2023-12-20T04:51:30;6.50;70.20
84053;DHT22;74140;44.988;4.976;2023-12-20T04:54:04;6.50;70.00
84053;DHT22;74140;44.988;4.976;2023-12-20T04:56:41;6.50;70.70
84053;DHT22;74140;44.988;4.976;2023-12-20T04:59:38;6.60;69.60
84053;DHT22;74140;44.988;4.976;2023-12-20T05:02:13;6.70;69.90
84053;DHT22;74140;44.988;4.976;2023-12-20T05:05:02;6.70;70.10
84053;DHT22;74140;44.988;4.976;2023-12-20T05:07:48;6.60;71.20
84053;DHT22;74140;44.988;4.976;2023-12-20T05:10:30;6.60;70.60
84053;DHT22;74140;44.988;4.976;2023-12-20T05:13:18;6.60;70.50
84053;DHT22;74140;44.988;4.976;2023-12-20T05:16:13;6.70;70.10
84053;DHT22;74140;44.988;4.976;2023-12-20T05:18:57;6.80;70.00
84053;DHT22;74140;44.988;4.976;2023-12-20T05:21:25;6.70;70.30
84053;DHT22;74140;44.988;4.976;2023-12-20T05:27:31;6.80;69.50
84053;DHT22;74140;44.988;4.976;2023-12-20T05:29:59;6.80;70.20
84053;DHT22;74140;44.988;4.976;2023-12-20T05:32:38;6.80;69.70
84053;DHT22;74140;44.988;4.976;2023-12-20T05:35:20;6.70;69.90
84053;DHT22;74140;44.988;4.976;2023-12-20T05:37:52;6.70;70.70
84053;DHT22;74140;44.988;4.976;2023-12-20T05:40:18;6.70;70.80
84053;DHT22;74140;44.988;4.976;2023-12-20T05:42:49;6.70;70.90
84053;DHT22;74140;44.988;4.976;2023-12-20T05:45:35;6.70;70.80
84053;DHT22;74140;44.988;4.976;2023-12-20T05:48:30;6.60;70.80
84053;DHT22;74140;44.988;4.976;2023-12-20T05:54:44;6.70;70.90
84053;DHT22;74140;44.988;4.976;2023-12-20T05:57:38;6.70;70.30
84053;DHT22;74140;44.988;4.976;2023-12-20T06:00:15;6.80;69.90
84053;DHT22;74140;44.988;4.976;2023-12-20T06:03:01;6.80;69.80
84053;DHT22;74140;44.988;4.976;2023-12-20T06:05:51;6.90;68.80
84053;DHT22;74140;44.988;4.976;2023-12-20T06:11:23;7.00;69.10
84053;DHT22;74140;44.988;4.976;2023-12-20T06:14:07;7.00;69.60
84053;DHT22;74140;44.988;4.976;2023-12-20T06:19:51;7.10;68.40
84053;DHT22;74140;44.988;4.976;2023-12-20T06:22:34;7.10;68.50
84053;DHT22;74140;44.988;4.976;2023-12-20T06:25:11;7.20;69.20
84053;DHT22;74140;44.988;4.976;2023-12-20T06:27:45;7.20;69.70
84053;DHT22;74140;44.988;4.976;2023-12-20T06:30:27;7.20;70.30
84053;DHT22;74140;44.988;4.976;2023-12-20T06:33:01;7.10;71.00
84053;DHT22;74140;44.988;4.976;2023-12-20T06:35:46;7.20;69.90
84053;DHT22;74140;44.988;4.976;2023-12-20T06:38:27;7.20;69.30
84053;DHT22;74140;44.988;4.976;2023-12-20T06:40:53;7.30;68.90
84053;DHT22;74140;44.988;4.976;2023-12-20T06:43:28;7.30;69.40
84053;DHT22;74140;44.988;4.976;2023-12-20T06:46:27;7.30;69.00
84053;DHT22;74140;44.988;4.976;2023-12-20T06:49:07;7.20;70.60
84053;DHT22;74140;44.988;4.976;2023-12-20T06:51:41;7.10;70.50
84053;DHT22;74140;44.988;4.976;2023-12-20T06:54:07;7.00;71.90
84053;DHT22;74140;44.988;4.976;2023-12-20T06:56:39;6.90;71.90
84053;DHT22;74140;44.988;4.976;2023-12-20T06:59:05;6.90;71.80
84053;DHT22;74140;44.988;4.976;2023-12-20T07:01:48;6.80;71.20
84053;DHT22;74140;44.988;4.976;2023-12-20T07:07:41;6.80;72.30
84053;DHT22;74140;44.988;4.976;2023-12-20T07:10:10;6.80;72.80
84053;DHT22;74140;44.988;4.976;2023-12-20T07:12:53;6.80;72.60
84053;DHT22;74140;44.988;4.976;2023-12-20T07:15:23;6.80;72.60
84053;DHT22;74140;44.988;4.976;2023-12-20T07:18:18;6.90;73.40
84053;DHT22;74140;44.988;4.976;2023-12-20T07:21:19;6.90;73.50
84053;DHT22;74140;44.988;4.976;2023-12-20T07:23:45;7.00;73.10
84053;DHT22;74140;44.988;4.976;2023-12-20T07:26:14;7.00;74.60
84053;DHT22;74140;44.988;4.976;2023-12-20T07:45:22;7.70;74.50
84053;DHT22;74140;44.988;4.976;2023-12-20T07:49:01;7.70;74.30
84053;DHT22;74140;44.988;4.976;2023-12-20T07:51:51;7.80;74.40
84053;DHT22;74140;44.988;4.976;2023-12-20T07:57:55;7.90;74.10
84053;DHT22;74140;44.988;4.976;2023-12-20T08:28:12;8.00;73.70
84053;DHT22;74140;44.988;4.976;2023-12-20T08:38:01;8.00;73.70
84053;DHT22;74140;44.988;4.976;2023-12-20T11:49:35;14.10;56.60
84053;DHT22;74140;44.988;4.976;2023-12-20T11:52:27;13.50;55.80
84053;DHT22;74140;44.988;4.976;2023-12-20T11:55:18;13.00;56.60
84053;DHT22;74140;44.988;4.976;2023-12-20T11:57:54;12.50;56.90
84053;DHT22;74140;44.988;4.976;2023-12-20T12:03:43;11.90;58.50
84053;DHT22;74140;44.988;4.976;2023-12-20T12:06:24;11.60;59.30
84053;DHT22;74140;44.988;4.976;2023-12-20T12:09:09;11.60;59.60
84053;DHT22;74140;44.988;4.976;2023-12-20T12:11:50;11.60;59.10
84053;DHT22;74140;44.988;4.976;2023-12-20T12:14:21;11.70;59.20
84053;DHT22;74140;44.988;4.976;2023-12-20T12:17:01;11.80;59.00
84053;DHT22;74140;44.988;4.976;2023-12-20T12:19:43;11.70;58.90
84053;DHT22;74140;44.988;4.976;2023-12-20T12:22:19;11.60;59.00
84053;DHT22;74140;44.988;4.976;2023-12-20T12:24:50;11.80;59.70
84053;DHT22;74140;44.988;4.976;2023-12-20T12:27:19;12.10;58.50
84053;DHT22;74140;44.988;4.976;2023-12-20T12:30:20;12.40;58.60
84053;DHT22;74140;44.988;4.976;2023-12-20T12:33:13;12.70;57.10
84053;DHT22;74140;44.988;4.976;2023-12-20T12:35:54;12.70;57.10
84053;DHT22;74140;44.988;4.976;2023-12-20T12:38:27;12.50;56.20
84053;DHT22;74140;44.988;4.976;2023-12-20T12:41:00;12.20;56.50
84053;DHT22;74140;44.988;4.976;2023-12-20T14:11:37;9.90;60.90
84053;DHT22;74140;44.988;4.976;2023-12-20T15:00:14;9.20;58.10
84053;DHT22;74140;44.988;4.976;2023-12-20T15:03:05;9.10;57.80
84053;DHT22;74140;44.988;4.976;2023-12-20T15:06:06;9.00;58.20
84053;DHT22;74140;44.988;4.976;2023-12-20T15:24:35;8.90;58.50
84053;DHT22;74140;44.988;4.976;2023-12-20T15:27:24;8.80;58.60
84053;DHT22;74140;44.988;4.976;2023-12-20T15:56:03;8.30;60.40
84053;DHT22;74140;44.988;4.976;2023-12-20T16:05:21;8.00;61.10
84053;DHT22;74140;44.988;4.976;2023-12-20T16:29:39;7.60;61.80
84053;DHT22;74140;44.988;4.976;2023-12-20T16:32:07;7.60;61.90
84053;DHT22;74140;44.988;4.976;2023-12-20T16:34:35;7.50;62.10
84053;DHT22;74140;44.988;4.976;2023-12-20T16:37:04;7.50;62.40
84053;DHT22;74140;44.988;4.976;2023-12-20T16:39:33;7.50;62.60
84053;DHT22;74140;44.988;4.976;2023-12-20T16:42:01;7.50;62.70
84053;DHT22;74140;44.988;4.976;2023-12-20T16:44:36;7.40;62.90
84053;DHT22;74140;44.988;4.976;2023-12-20T16:47:08;7.40;63.00
84053;DHT22;74140;44.988;4.976;2023-12-20T16:49:34;7.40;63.00
84053;DHT22;74140;44.988;4.976;2023-12-20T16:52:02;7.30;63.00
84053;DHT22;74140;44.988;4.976;2023-12-20T16:54:31;7.30;63.20
84053;DHT22;74140;44.988;4.976;2023-12-20T16:56:57;7.20;63.40
84053;DHT22;74140;44.988;4.976;2023-12-20T16:59:25;7.20;63.30
84053;DHT22;74140;44.988;4.976;2023-12-20T17:01:56;7.20;63.30
84053;DHT22;74140;44.988;4.976;2023-12-20T17:04:22;7.20;63.40
84053;DHT22;74140;44.988;4.976;2023-12-20T17:06:52;7.20;63.40
84053;DHT22;74140;44.988;4.976;2023-12-20T17:09:29;7.20;63.60
84053;DHT22;74140;44.988;4.976;2023-12-20T17:11:56;7.10;63.60
84053;DHT22;74140;44.988;4.976;2023-12-20T17:14:28;7.00;63.60
84053;DHT22;74140;44.988;4.976;2023-12-20T17:16:59;7.00;63.70
84053;DHT22;74140;44.988;4.976;2023-12-20T17:19:35;7.00;63.80
84053;DHT22;74140;44.988;4.976;2023-12-20T17:22:04;7.00;63.90
84053;DHT22;74140;44.988;4.976;2023-12-20T17:24:29;7.00;63.70
84053;DHT22;74140;44.988;4.976;2023-12-20T17:26:55;7.00;64.10
84053;DHT22;74140;44.988;4.976;2023-12-20T17:29:21;7.00;63.80
84053;DHT22;74140;44.988;4.976;2023-12-20T17:31:47;7.10;63.90
84053;DHT22;74140;44.988;4.976;2023-12-20T17:34:13;7.10;63.80
84053;DHT22;74140;44.988;4.976;2023-12-20T17:36:44;7.10;63.80
84053;DHT22;74140;44.988;4.976;2023-12-20T17:39:25;7.00;63.90
84053;DHT22;74140;44.988;4.976;2023-12-20T17:41:51;7.00;63.80
84053;DHT22;74140;44.988;4.976;2023-12-20T17:44:19;7.10;63.80
84053;DHT22;74140;44.988;4.976;2023-12-20T17:46:46;7.00;63.70
84053;DHT22;74140;44.988;4.976;2023-12-20T17:49:15;7.00;63.90
84053;DHT22;74140;44.988;4.976;2023-12-20T17:51:47;6.90;63.90
84053;DHT22;74140;44.988;4.976;2023-12-20T17:54:18;6.90;64.20
84053;DHT22;74140;44.988;4.976;2023-12-20T17:56:44;6.90;64.30
84053;DHT22;74140;44.988;4.976;2023-12-20T17:59:17;6.90;64.30
84053;DHT22;74140;44.988;4.976;2023-12-20T18:01:46;6.90;64.00
84053;DHT22;74140;44.988;4.976;2023-12-20T18:04:15;6.90;64.50
84053;DHT22;74140;44.988;4.976;2023-12-20T18:06:47;6.80;64.10
84053;DHT22;74140;44.988;4.976;2023-12-20T18:09:18;6.70;64.20
84053;DHT22;74140;44.988;4.976;2023-12-20T18:11:51;6.70;64.40
84053;DHT22;74140;44.988;4.976;2023-12-20T18:14:17;6.50;65.20
84053;DHT22;74140;44.988;4.976;2023-12-20T18:16:46;6.40;65.30
84053;DHT22;74140;44.988;4.976;2023-12-20T18:19:15;6.30;65.10
84053;DHT22;74140;44.988;4.976;2023-12-20T18:21:44;6.30;65.30
84053;DHT22;74140;44.988;4.976;2023-12-20T18:24:10;6.20;65.50
84053;DHT22;74140;44.988;4.976;2023-12-20T18:26:39;6.20;65.80
84053;DHT22;74140;44.988;4.976;2023-12-20T18:29:05;6.20;65.60
84053;DHT22;74140;44.988;4.976;2023-12-20T18:31:33;6.20;66.40
84053;DHT22;74140;44.988;4.976;2023-12-20T18:34:05;6.30;66.30
84053;DHT22;74140;44.988;4.976;2023-12-20T18:36:33;6.30;66.80
84053;DHT22;74140;44.988;4.976;2023-12-20T18:39:03;6.40;66.20
84053;DHT22;74140;44.988;4.976;2023-12-20T18:41:37;6.50;65.90
84053;DHT22;74140;44.988;4.976;2023-12-20T18:44:07;6.40;66.40
84053;DHT22;74140;44.988;4.976;2023-12-20T18:46:33;6.40;66.20
84053;DHT22;74140;44.988;4.976;2023-12-20T18:49:06;6.30;65.90
84053;DHT22;74140;44.988;4.976;2023-12-20T18:51:38;6.30;66.00
84053;DHT22;74140;44.988;4.976;2023-12-20T18:54:11;6.30;66.50
84053;DHT22;74140;44.988;4.976;2023-12-20T18:56:45;6.20;66.60
84053;DHT22;74140;44.988;4.976;2023-12-20T18:59:22;6.10;66.80
84053;DHT22;74140;44.988;4.976;2023-12-20T19:01:51;6.10;66.90
84053;DHT22;74140;44.988;4.976;2023-12-20T19:04:21;6.00;67.00
84053;DHT22;74140;44.988;4.976;2023-12-20T19:06:47;6.00;67.10
84053;DHT22;74140;44.988;4.976;2023-12-20T19:09:19;5.90;67.80
84053;DHT22;74140;44.988;4.976;2023-12-20T19:11:44;5.90;67.60
84053;DHT22;74140;44.988;4.976;2023-12-20T19:14:10;5.90;67.40
84053;DHT22;74140;44.988;4.976;2023-12-20T19:16:39;6.00;67.60
84053;DHT22;74140;44.988;4.976;2023-12-20T19:19:05;6.00;67.80
84053;DHT22;74140;44.988;4.976;2023-12-20T19:21:31;6.10;67.40
84053;DHT22;74140;44.988;4.976;2023-12-20T19:24:14;6.10;67.60
84053;DHT22;74140;44.988;4.976;2023-12-20T19:26:43;6.10;67.60
84053;DHT22;74140;44.988;4.976;2023-12-20T19:29:12;6.00;67.70
84053;DHT22;74140;44.988;4.976;2023-12-20T19:31:41;6.00;67.60
84053;DHT22;74140;44.988;4.976;2023-12-20T19:34:07;5.90;68.00
84053;DHT22;74140;44.988;4.976;2023-12-20T19:36:43;5.90;68.10
84053;DHT22;74140;44.988;4.976;2023-12-20T19:39:15;5.80;68.40
84053;DHT22;74140;44.988;4.976;2023-12-20T19:41:41;5.80;68.60
84053;DHT22;74140;44.988;4.976;2023-12-20T19:44:07;5.70;68.90
84053;DHT22;74140;44.988;4.976;2023-12-20T19:46:36;5.80;68.80
84053;DHT22;74140;44.988;4.976;2023-12-20T19:49:05;5.80;68.70
84053;DHT22;74140;44.988;4.976;2023-12-20T19:51:38;5.80;69.30
84053;DHT22;74140;44.988;4.976;2023-12-20T19:54:15;5.80;69.10
84053;DHT22;74140;44.988;4.976;2023-12-20T19:56:43;5.80;69.30
84053;DHT22;74140;44.988;4.976;2023-12-20T19:59:26;5.80;69.10
84053;DHT22;74140;44.988;4.976;2023-12-20T20:01:52;5.80;69.30
84053;DHT22;74140;44.988;4.976;2023-12-20T20:04:20;5.90;69.50
84053;DHT22;74140;44.988;4.976;2023-12-20T20:06:51;5.80;68.90
84053;DHT22;74140;44.988;4.976;2023-12-20T20:09:21;5.80;69.20
84053;DHT22;74140;44.988;4.976;2023-12-20T20:11:49;5.80;69.20
84053;DHT22;74140;44.988;4.976;2023-12-20T20:14:22;5.80;69.40
84053;DHT22;74140;44.988;4.976;2023-12-20T20:16:55;5.80;69.20
84053;DHT22;74140;44.988;4.976;2023-12-20T20:19:25;5.80;69.10
84053;DHT22;74140;44.988;4.976;2023-12-20T20:21:51;5.80;68.90
84053;DHT22;74140;44.988;4.976;2023-12-20T20:24:17;5.70;68.80
84053;DHT22;74140;44.988;4.976;2023-12-20T20:26:49;5.60;68.80
84053;DHT22;74140;44.988;4.976;2023-12-20T20:29:15;5.60;69.40
84053;DHT22;74140;44.988;4.976;2023-12-20T20:31:40;5.50;69.80
84053;DHT22;74140;44.988;4.976;2023-12-20T20:34:16;5.50;69.50
84053;DHT22;74140;44.988;4.976;2023-12-20T20:36:49;5.40;69.90
84053;DHT22;74140;44.988;4.976;2023-12-20T20:39:15;5.40;69.70
84053;DHT22;74140;44.988;4.976;2023-12-20T20:41:44;5.40;69.30
84053;DHT22;74140;44.988;4.976;2023-12-20T20:44:27;5.50;68.60
84053;DHT22;74140;44.988;4.976;2023-12-20T20:46:56;5.50;69.10
84053;DHT22;74140;44.988;4.976;2023-12-20T20:49:22;5.50;68.70
84053;DHT22;74140;44.988;4.976;2023-12-20T20:51:51;5.40;69.10
84053;DHT22;74140;44.988;4.976;2023-12-20T20:54:22;5.40;68.90
84053;DHT22;74140;44.988;4.976;2023-12-20T20:56:59;5.40;69.00
84053;DHT22;74140;44.988;4.976;2023-12-20T20:59:25;5.30;69.10
84053;DHT22;74140;44.988;4.976;2023-12-20T21:01:54;5.20;69.40
84053;DHT22;74140;44.988;4.976;2023-12-20T21:04:22;5.20;69.80
84053;DHT22;74140;44.988;4.976;2023-12-20T21:06:51;5.20;70.10
84053;DHT22;74140;44.988;4.976;2023-12-20T21:09:28;5.20;70.30
84053;DHT22;74140;44.988;4.976;2023-12-20T21:11:54;5.20;70.30
84053;DHT22;74140;44.988;4.976;2023-12-20T21:14:24;5.20;70.60
84053;DHT22;74140;44.988;4.976;2023-12-20T21:16:50;5.20;70.70
84053;DHT22;74140;44.988;4.976;2023-12-20T21:19:16;5.20;70.70
84053;DHT22;74140;44.988;4.976;2023-12-20T21:21:42;5.10;70.70
84053;DHT22;74140;44.988;4.976;2023-12-20T21:24:11;5.10;70.50
84053;DHT22;74140;44.988;4.976;2023-12-20T21:26:44;5.10;71.20
84053;DHT22;74140;44.988;4.976;2023-12-20T21:29:29;5.10;70.60
84053;DHT22;74140;44.988;4.976;2023-12-20T21:31:57;5.00;71.00
84053;DHT22;74140;44.988;4.976;2023-12-20T21:34:23;5.00;71.00
84053;DHT22;74140;44.988;4.976;2023-12-20T21:36:49;5.00;70.80
84053;DHT22;74140;44.988;4.976;2023-12-20T21:39:17;5.00;71.50
84053;DHT22;74140;44.988;4.976;2023-12-20T21:41:53;5.00;71.40
84053;DHT22;74140;44.988;4.976;2023-12-20T21:44:22;5.00;71.00
84053;DHT22;74140;44.988;4.976;2023-12-20T21:46:51;5.00;71.50
84053;DHT22;74140;44.988;4.976;2023-12-20T21:49:19;5.10;70.90
84053;DHT22;74140;44.988;4.976;2023-12-20T21:51:48;5.10;70.70
84053;DHT22;74140;44.988;4.976;2023-12-20T21:54:16;5.10;69.90
84053;DHT22;74140;44.988;4.976;2023-12-20T21:56:50;5.10;69.70
84053;DHT22;74140;44.988;4.976;2023-12-20T21:59:23;5.10;69.70
84053;DHT22;74140;44.988;4.976;2023-12-20T22:02:00;5.10;69.70
84053;DHT22;74140;44.988;4.976;2023-12-20T22:04:28;5.10;69.90
84053;DHT22;74140;44.988;4.976;2023-12-20T22:06:56;5.10;70.00
84053;DHT22;74140;44.988;4.976;2023-12-20T22:09:25;5.10;70.10
84053;DHT22;74140;44.988;4.976;2023-12-20T22:11:50;5.20;70.10
84053;DHT22;74140;44.988;4.976;2023-12-20T22:14:22;5.20;70.20
84053;DHT22;74140;44.988;4.976;2023-12-20T22:16:51;5.20;70.30
84053;DHT22;74140;44.988;4.976;2023-12-20T22:19:27;5.10;70.30
84053;DHT22;74140;44.988;4.976;2023-12-20T22:21:53;5.10;70.10
84053;DHT22;74140;44.988;4.976;2023-12-20T22:24:22;5.10;70.20
84053;DHT22;74140;44.988;4.976;2023-12-20T22:26:47;5.10;70.10
84053;DHT22;74140;44.988;4.976;2023-12-20T22:29:16;5.10;69.80
84053;DHT22;74140;44.988;4.976;2023-12-20T22:31:51;5.00;70.10
84053;DHT22;74140;44.988;4.976;2023-12-20T22:34:17;5.00;70.50
84053;DHT22;74140;44.988;4.976;2023-12-20T22:36:55;5.00;70.20
84053;DHT22;74140;44.988;4.976;2023-12-20T22:39:27;5.00;70.10
84053;DHT22;74140;44.988;4.976;2023-12-20T22:41:56;5.00;70.00
84053;DHT22;74140;44.988;4.976;2023-12-20T22:44:21;5.00;70.00
84053;DHT22;74140;44.988;4.976;2023-12-20T22:46:47;5.10;70.00
84053;DHT22;74140;44.988;4.976;2023-12-20T22:49:13;5.10;70.50
84053;DHT22;74140;44.988;4.976;2023-12-20T22:51:39;5.10;70.30
84053;DHT22;74140;44.988;4.976;2023-12-20T22:54:05;5.20;70.20
84053;DHT22;74140;44.988;4.976;2023-12-20T22:56:31;5.30;70.00
84053;DHT22;74140;44.988;4.976;2023-12-20T22:58:57;5.30;69.70
84053;DHT22;74140;44.988;4.976;2023-12-20T23:01:26;5.30;69.60
84053;DHT22;74140;44.988;4.976;2023-12-20T23:03:55;5.30;69.70
84053;DHT22;74140;44.988;4.976;2023-12-20T23:06:20;5.30;69.70
84053;DHT22;74140;44.988;4.976;2023-12-20T23:08:46;5.30;70.10
84053;DHT22;74140;44.988;4.976;2023-12-20T23:11:12;5.10;70.50
84053;DHT22;74140;44.988;4.976;2023-12-20T23:13:38;5.00;70.70
84053;DHT22;74140;44.988;4.976;2023-12-20T23:16:06;4.90;71.20
84053;DHT22;74140;44.988;4.976;2023-12-20T23:18:38;5.00;70.50
84053;DHT22;74140;44.988;4.976;2023-12-20T23:21:16;5.10;69.80
84053;DHT22;74140;44.988;4.976;2023-12-20T23:23:44;5.10;69.70
84053;DHT22;74140;44.988;4.976;2023-12-20T23:26:21;5.00;69.60
84053;DHT22;74140;44.988;4.976;2023-12-20T23:28:51;5.00;69.80
84053;DHT22;74140;44.988;4.976;2023-12-20T23:31:25;5.00;69.70
84053;DHT22;74140;44.988;4.976;2023-12-20T23:33:54;5.10;69.70
84053;DHT22;74140;44.988;4.976;2023-12-20T23:36:20;5.00;71.00
84053;DHT22;74140;44.988;4.976;2023-12-20T23:38:46;5.00;71.10
84053;DHT22;74140;44.988;4.976;2023-12-20T23:41:12;5.00;71.20
84053;DHT22;74140;44.988;4.976;2023-12-20T23:43:37;5.10;70.80
84053;DHT22;74140;44.988;4.976;2023-12-20T23:46:04;5.20;70.40
84053;DHT22;74140;44.988;4.976;2023-12-20T23:48:30;5.40;70.00
84053;DHT22;74140;44.988;4.976;2023-12-20T23:50:59;5.50;69.90
84053;DHT22;74140;44.988;4.976;2023-12-20T23:53:25;5.60;69.50
84053;DHT22;74140;44.988;4.976;2023-12-20T23:56:01;5.60;69.30
84053;DHT22;74140;44.988;4.976;2023-12-20T23:58:27;5.70;69.20
